sensor_id;sensor_type;location;lat;lon;timestamp;P1;durP1;ratioP1;P2;durP2;ratioP2
40955;SDS011;26687;48.254;11.454;2022-11-11T00:01:22;8.68;;;7.80;;
40955;SDS011;26687;48.254;11.454;2022-11-11T00:04:22;8.63;;;7.73;;
40955;SDS011;26687;48.254;11.454;2022-11-11T00:07:22;8.27;;;7.47;;
40955;SDS011;26687;48.254;11.454;2022-11-11T00:10:22;8.55;;;7.75;;
40955;SDS011;26687;48.254;11.454;2022-11-11T00:13:22;9.10;;;8.20;;
40955;SDS011;26687;48.254;11.454;2022-11-11T00:16:23;8.38;;;7.57;;
40955;SDS011;26687;48.254;11.454;2022-11-11T00:19:23;9.60;;;8.70;;
40955;SDS011;26687;48.254;11.454;2022-11-11T00:22:42;9.40;;;8.50;;
40955;SDS011;26687;48.254;11.454;2022-11-11T00:26:01;10.18;;;9.00;;
40955;SDS011;26687;48.254;11.454;2022-11-11T00:29:01;9.95;;;8.95;;
40955;SDS011;26687;48.254;11.454;2022-11-11T00:32:02;9.10;;;8.17;;
40955;SDS011;26687;48.254;11.454;2022-11-11T00:35:20;7.60;;;6.93;;
40955;SDS011;26687;48.254;11.454;2022-11-11T00:38:42;7.38;;;6.68;;
40955;SDS011;26687;48.254;11.454;2022-11-11T00:41:45;7.10;;;6.40;;
40955;SDS011;26687;48.254;11.454;2022-11-11T00:44:45;7.93;;;6.30;;
40955;SDS011;26687;48.254;11.454;2022-11-11T00:47:45;7.93;;;7.15;;
40955;SDS011;26687;48.254;11.454;2022-11-11T00:51:04;7.97;;;7.18;;
40955;SDS011;26687;48.254;11.454;2022-11-11T00:54:05;7.10;;;6.50;;
40955;SDS011;26687;48.254;11.454;2022-11-11T00:57:05;7.47;;;6.80;;
40955;SDS011;26687;48.254;11.454;2022-11-11T01:00:05;7.32;;;6.72;;
40955;SDS011;26687;48.254;11.454;2022-11-11T01:03:06;6.90;;;6.28;;
40955;SDS011;26687;48.254;11.454;2022-11-11T01:06:06;9.00;;;7.78;;
40955;SDS011;26687;48.254;11.454;2022-11-11T01:09:07;9.50;;;8.43;;
40955;SDS011;26687;48.254;11.454;2022-11-11T01:12:07;17.73;;;11.32;;
40955;SDS011;26687;48.254;11.454;2022-11-11T01:15:07;14.10;;;10.93;;
40955;SDS011;26687;48.254;11.454;2022-11-11T01:18:08;12.68;;;10.73;;
40955;SDS011;26687;48.254;11.454;2022-11-11T01:24:09;14.38;;;12.18;;
40955;SDS011;26687;48.254;11.454;2022-11-11T01:27:09;16.23;;;11.40;;
40955;SDS011;26687;48.254;11.454;2022-11-11T01:30:09;13.48;;;12.07;;
40955;SDS011;26687;48.254;11.454;2022-11-11T01:33:12;13.50;;;11.88;;
40955;SDS011;26687;48.254;11.454;2022-11-11T01:36:20;12.77;;;10.77;;
40955;SDS011;26687;48.254;11.454;2022-11-11T01:39:20;15.70;;;13.02;;
40955;SDS011;26687;48.254;11.454;2022-11-11T01:42:21;21.50;;;15.25;;
40955;SDS011;26687;48.254;11.454;2022-11-11T01:48:42;16.00;;;13.50;;
40955;SDS011;26687;48.254;11.454;2022-11-11T01:55:18;21.67;;;16.05;;
40955;SDS011;26687;48.254;11.454;2022-11-11T01:58:19;24.35;;;16.40;;
40955;SDS011;26687;48.254;11.454;2022-11-11T02:01:20;17.75;;;13.27;;
40955;SDS011;26687;48.254;11.454;2022-11-11T02:04:20;15.03;;;12.50;;
40955;SDS011;26687;48.254;11.454;2022-11-11T02:07:39;12.63;;;11.18;;
40955;SDS011;26687;48.254;11.454;2022-11-11T02:10:42;14.35;;;11.40;;
40955;SDS011;26687;48.254;11.454;2022-11-11T02:13:43;16.05;;;12.52;;
40955;SDS011;26687;48.254;11.454;2022-11-11T02:17:06;14.32;;;12.50;;
40955;SDS011;26687;48.254;11.454;2022-11-11T02:20:07;15.20;;;13.25;;
40955;SDS011;26687;48.254;11.454;2022-11-11T02:26:17;13.88;;;11.75;;
40955;SDS011;26687;48.254;11.454;2022-11-11T02:29:18;14.30;;;10.77;;
40955;SDS011;26687;48.254;11.454;2022-11-11T02:32:19;12.50;;;10.75;;
40955;SDS011;26687;48.254;11.454;2022-11-11T02:35:20;9.93;;;8.87;;
40955;SDS011;26687;48.254;11.454;2022-11-11T02:38:21;9.93;;;8.93;;
40955;SDS011;26687;48.254;11.454;2022-11-11T02:41:22;9.38;;;8.45;;
40955;SDS011;26687;48.254;11.454;2022-11-11T02:44:40;11.60;;;8.55;;
40955;SDS011;26687;48.254;11.454;2022-11-11T02:47:41;10.77;;;8.48;;
40955;SDS011;26687;48.254;11.454;2022-11-11T02:50:41;10.27;;;8.97;;
40955;SDS011;26687;48.254;11.454;2022-11-11T02:53:41;9.73;;;8.73;;
40955;SDS011;26687;48.254;11.454;2022-11-11T02:56:41;10.38;;;8.32;;
40955;SDS011;26687;48.254;11.454;2022-11-11T03:00:00;9.20;;;8.27;;
40955;SDS011;26687;48.254;11.454;2022-11-11T03:03:01;8.65;;;7.75;;
40955;SDS011;26687;48.254;11.454;2022-11-11T03:06:01;9.52;;;8.10;;
40955;SDS011;26687;48.254;11.454;2022-11-11T03:09:02;9.10;;;8.13;;
40955;SDS011;26687;48.254;11.454;2022-11-11T03:12:02;9.45;;;8.18;;
40955;SDS011;26687;48.254;11.454;2022-11-11T03:15:03;7.93;;;6.95;;
40955;SDS011;26687;48.254;11.454;2022-11-11T03:18:03;5.15;;;4.75;;
40955;SDS011;26687;48.254;11.454;2022-11-11T03:21:03;5.63;;;5.13;;
40955;SDS011;26687;48.254;11.454;2022-11-11T03:24:04;5.60;;;5.10;;
40955;SDS011;26687;48.254;11.454;2022-11-11T03:27:04;5.57;;;5.07;;
40955;SDS011;26687;48.254;11.454;2022-11-11T03:30:04;6.95;;;6.05;;
40955;SDS011;26687;48.254;11.454;2022-11-11T03:33:05;6.40;;;5.85;;
40955;SDS011;26687;48.254;11.454;2022-11-11T03:36:05;7.72;;;5.85;;
40955;SDS011;26687;48.254;11.454;2022-11-11T03:39:05;6.32;;;5.78;;
40955;SDS011;26687;48.254;11.454;2022-11-11T03:42:05;6.20;;;5.60;;
40955;SDS011;26687;48.254;11.454;2022-11-11T03:45:06;6.70;;;6.10;;
40955;SDS011;26687;48.254;11.454;2022-11-11T03:48:06;6.75;;;6.15;;
40955;SDS011;26687;48.254;11.454;2022-11-11T03:51:06;6.43;;;5.82;;
40955;SDS011;26687;48.254;11.454;2022-11-11T03:54:07;5.72;;;5.22;;
40955;SDS011;26687;48.254;11.454;2022-11-11T03:57:07;5.50;;;4.90;;
40955;SDS011;26687;48.254;11.454;2022-11-11T04:00:26;4.75;;;4.35;;
40955;SDS011;26687;48.254;11.454;2022-11-11T04:03:27;5.38;;;4.88;;
40955;SDS011;26687;48.254;11.454;2022-11-11T04:06:46;6.07;;;5.57;;
40955;SDS011;26687;48.254;11.454;2022-11-11T04:10:04;6.00;;;5.22;;
40955;SDS011;26687;48.254;11.454;2022-11-11T04:13:23;5.72;;;5.22;;
40955;SDS011;26687;48.254;11.454;2022-11-11T04:16:42;5.57;;;5.07;;
40955;SDS011;26687;48.254;11.454;2022-11-11T04:19:42;6.32;;;5.72;;
40955;SDS011;26687;48.254;11.454;2022-11-11T04:23:01;5.50;;;5.00;;
40955;SDS011;26687;48.254;11.454;2022-11-11T04:26:02;5.43;;;4.93;;
40955;SDS011;26687;48.254;11.454;2022-11-11T04:29:02;4.93;;;4.53;;
40955;SDS011;26687;48.254;11.454;2022-11-11T04:32:21;4.78;;;4.38;;
40955;SDS011;26687;48.254;11.454;2022-11-11T04:35:41;7.63;;;6.93;;
40955;SDS011;26687;48.254;11.454;2022-11-11T04:38:41;9.73;;;7.77;;
40955;SDS011;26687;48.254;11.454;2022-11-11T04:42:00;9.63;;;8.73;;
40955;SDS011;26687;48.254;11.454;2022-11-11T04:45:01;9.85;;;8.85;;
40955;SDS011;26687;48.254;11.454;2022-11-11T04:48:20;11.15;;;9.27;;
40955;SDS011;26687;48.254;11.454;2022-11-11T04:51:20;9.90;;;8.73;;
40955;SDS011;26687;48.254;11.454;2022-11-11T04:54:40;11.35;;;9.52;;
40955;SDS011;26687;48.254;11.454;2022-11-11T04:58:00;9.32;;;8.43;;
40955;SDS011;26687;48.254;11.454;2022-11-11T05:01:01;10.00;;;9.05;;
40955;SDS011;26687;48.254;11.454;2022-11-11T05:04:01;9.32;;;8.40;;
40955;SDS011;26687;48.254;11.454;2022-11-11T05:07:01;9.15;;;8.25;;
40955;SDS011;26687;48.254;11.454;2022-11-11T05:10:20;8.55;;;7.70;;
40955;SDS011;26687;48.254;11.454;2022-11-11T05:13:20;10.00;;;8.37;;
40955;SDS011;26687;48.254;11.454;2022-11-11T05:16:40;10.52;;;8.20;;
40955;SDS011;26687;48.254;11.454;2022-11-11T05:19:59;8.90;;;8.00;;
40955;SDS011;26687;48.254;11.454;2022-11-11T05:23:18;8.00;;;7.20;;
40955;SDS011;26687;48.254;11.454;2022-11-11T05:26:18;8.07;;;7.27;;
40955;SDS011;26687;48.254;11.454;2022-11-11T05:29:19;8.05;;;7.30;;
40955;SDS011;26687;48.254;11.454;2022-11-11T05:32:19;7.32;;;6.63;;
40955;SDS011;26687;48.254;11.454;2022-11-11T05:35:20;8.07;;;7.28;;
40955;SDS011;26687;48.254;11.454;2022-11-11T05:38:20;8.57;;;7.78;;
40955;SDS011;26687;48.254;11.454;2022-11-11T05:41:20;8.00;;;7.30;;
40955;SDS011;26687;48.254;11.454;2022-11-11T05:44:20;7.70;;;6.97;;
40955;SDS011;26687;48.254;11.454;2022-11-11T05:47:21;7.57;;;6.87;;
40955;SDS011;26687;48.254;11.454;2022-11-11T05:50:21;7.37;;;6.67;;
40955;SDS011;26687;48.254;11.454;2022-11-11T05:53:21;7.77;;;6.90;;
40955;SDS011;26687;48.254;11.454;2022-11-11T05:56:23;7.32;;;6.53;;
40955;SDS011;26687;48.254;11.454;2022-11-11T05:59:23;8.43;;;7.55;;
40955;SDS011;26687;48.254;11.454;2022-11-11T06:02:23;7.83;;;7.03;;
40955;SDS011;26687;48.254;11.454;2022-11-11T06:05:23;7.00;;;6.37;;
40955;SDS011;26687;48.254;11.454;2022-11-11T06:08:24;7.53;;;6.83;;
40955;SDS011;26687;48.254;11.454;2022-11-11T06:11:24;7.47;;;6.78;;
40955;SDS011;26687;48.254;11.454;2022-11-11T06:14:24;8.77;;;7.32;;
40955;SDS011;26687;48.254;11.454;2022-11-11T06:17:24;7.80;;;7.10;;
40955;SDS011;26687;48.254;11.454;2022-11-11T06:20:25;6.80;;;6.20;;
40955;SDS011;26687;48.254;11.454;2022-11-11T06:23:26;7.15;;;6.40;;
40955;SDS011;26687;48.254;11.454;2022-11-11T06:26:26;7.53;;;6.53;;
40955;SDS011;26687;48.254;11.454;2022-11-11T06:29:27;9.30;;;8.33;;
40955;SDS011;26687;48.254;11.454;2022-11-11T06:32:27;9.83;;;8.07;;
40955;SDS011;26687;48.254;11.454;2022-11-11T06:35:27;10.65;;;7.20;;
40955;SDS011;26687;48.254;11.454;2022-11-11T06:38:27;7.93;;;7.23;;
40955;SDS011;26687;48.254;11.454;2022-11-11T06:41:28;7.18;;;6.38;;
40955;SDS011;26687;48.254;11.454;2022-11-11T06:44:28;6.50;;;5.90;;
40955;SDS011;26687;48.254;11.454;2022-11-11T06:47:28;6.90;;;5.93;;
40955;SDS011;26687;48.254;11.454;2022-11-11T06:50:28;7.38;;;5.50;;
40955;SDS011;26687;48.254;11.454;2022-11-11T06:53:29;6.38;;;5.60;;
40955;SDS011;26687;48.254;11.454;2022-11-11T06:56:29;6.50;;;5.53;;
40955;SDS011;26687;48.254;11.454;2022-11-11T06:59:29;5.53;;;5.03;;
40955;SDS011;26687;48.254;11.454;2022-11-11T07:02:30;5.57;;;4.45;;
40955;SDS011;26687;48.254;11.454;2022-11-11T07:05:31;4.73;;;4.30;;
40955;SDS011;26687;48.254;11.454;2022-11-11T07:08:31;4.18;;;3.85;;
40955;SDS011;26687;48.254;11.454;2022-11-11T07:11:31;4.13;;;3.72;;
40955;SDS011;26687;48.254;11.454;2022-11-11T07:14:31;4.85;;;4.28;;
40955;SDS011;26687;48.254;11.454;2022-11-11T07:17:32;4.30;;;3.93;;
40955;SDS011;26687;48.254;11.454;2022-11-11T07:20:32;4.78;;;4.35;;
40955;SDS011;26687;48.254;11.454;2022-11-11T07:23:32;4.93;;;4.50;;
40955;SDS011;26687;48.254;11.454;2022-11-11T07:26:32;6.90;;;5.77;;
40955;SDS011;26687;48.254;11.454;2022-11-11T07:29:32;5.70;;;5.07;;
40955;SDS011;26687;48.254;11.454;2022-11-11T07:32:33;5.33;;;4.83;;
40955;SDS011;26687;48.254;11.454;2022-11-11T07:35:33;5.23;;;4.73;;
40955;SDS011;26687;48.254;11.454;2022-11-11T07:38:33;7.33;;;4.70;;
40955;SDS011;26687;48.254;11.454;2022-11-11T07:41:33;4.07;;;3.67;;
40955;SDS011;26687;48.254;11.454;2022-11-11T07:44:34;4.25;;;3.90;;
40955;SDS011;26687;48.254;11.454;2022-11-11T07:47:34;3.90;;;3.45;;
40955;SDS011;26687;48.254;11.454;2022-11-11T07:50:34;3.50;;;3.20;;
40955;SDS011;26687;48.254;11.454;2022-11-11T07:53:35;3.17;;;2.97;;
40955;SDS011;26687;48.254;11.454;2022-11-11T07:56:35;6.97;;;3.50;;
40955;SDS011;26687;48.254;11.454;2022-11-11T07:59:35;5.93;;;3.20;;
40955;SDS011;26687;48.254;11.454;2022-11-11T08:02:35;9.88;;;3.90;;
40955;SDS011;26687;48.254;11.454;2022-11-11T08:05:36;8.57;;;4.18;;
40955;SDS011;26687;48.254;11.454;2022-11-11T08:08:36;6.88;;;5.15;;
40955;SDS011;26687;48.254;11.454;2022-11-11T08:11:36;5.47;;;4.97;;
40955;SDS011;26687;48.254;11.454;2022-11-11T08:14:55;3.83;;;3.53;;
40955;SDS011;26687;48.254;11.454;2022-11-11T08:17:55;5.22;;;4.20;;
40955;SDS011;26687;48.254;11.454;2022-11-11T08:20:55;5.53;;;4.35;;
40955;SDS011;26687;48.254;11.454;2022-11-11T08:23:56;7.53;;;4.60;;
40955;SDS011;26687;48.254;11.454;2022-11-11T08:26:56;9.27;;;4.78;;
40955;SDS011;26687;48.254;11.454;2022-11-11T08:29:57;6.65;;;4.50;;
40955;SDS011;26687;48.254;11.454;2022-11-11T08:33:00;5.68;;;4.60;;
40955;SDS011;26687;48.254;11.454;2022-11-11T08:36:01;7.55;;;5.30;;
40955;SDS011;26687;48.254;11.454;2022-11-11T08:39:01;6.65;;;5.53;;
40955;SDS011;26687;48.254;11.454;2022-11-11T08:42:02;6.80;;;5.40;;
40955;SDS011;26687;48.254;11.454;2022-11-11T08:45:02;6.77;;;5.80;;
40955;SDS011;26687;48.254;11.454;2022-11-11T08:48:02;6.63;;;5.22;;
40955;SDS011;26687;48.254;11.454;2022-11-11T08:51:03;5.40;;;4.95;;
40955;SDS011;26687;48.254;11.454;2022-11-11T08:54:03;6.57;;;4.83;;
40955;SDS011;26687;48.254;11.454;2022-11-11T08:57:04;5.18;;;4.68;;
40955;SDS011;26687;48.254;11.454;2022-11-11T09:00:04;4.50;;;4.10;;
40955;SDS011;26687;48.254;11.454;2022-11-11T09:03:05;4.63;;;4.07;;
40955;SDS011;26687;48.254;11.454;2022-11-11T09:06:06;4.30;;;3.90;;
40955;SDS011;26687;48.254;11.454;2022-11-11T09:09:06;4.43;;;4.00;;
40955;SDS011;26687;48.254;11.454;2022-11-11T09:12:06;5.30;;;4.32;;
40955;SDS011;26687;48.254;11.454;2022-11-11T09:15:06;3.75;;;3.45;;
40955;SDS011;26687;48.254;11.454;2022-11-11T09:18:07;6.72;;;4.07;;
40955;SDS011;26687;48.254;11.454;2022-11-11T09:21:09;3.88;;;3.58;;
40955;SDS011;26687;48.254;11.454;2022-11-11T09:24:09;3.80;;;3.50;;
40955;SDS011;26687;48.254;11.454;2022-11-11T09:27:10;4.00;;;3.63;;
40955;SDS011;26687;48.254;11.454;2022-11-11T09:30:10;7.15;;;4.15;;
40955;SDS011;26687;48.254;11.454;2022-11-11T09:33:10;6.18;;;3.25;;
40955;SDS011;26687;48.254;11.454;2022-11-11T09:36:11;4.18;;;3.78;;
40955;SDS011;26687;48.254;11.454;2022-11-11T09:39:11;4.37;;;3.90;;
40955;SDS011;26687;48.254;11.454;2022-11-11T09:45:20;4.88;;;4.38;;
40955;SDS011;26687;48.254;11.454;2022-11-11T09:48:29;4.43;;;4.03;;
40955;SDS011;26687;48.254;11.454;2022-11-11T09:51:41;5.38;;;4.05;;
40955;SDS011;26687;48.254;11.454;2022-11-11T09:54:45;4.53;;;4.05;;
40955;SDS011;26687;48.254;11.454;2022-11-11T10:00:49;4.20;;;3.90;;
40955;SDS011;26687;48.254;11.454;2022-11-11T10:03:53;4.60;;;4.00;;
40955;SDS011;26687;48.254;11.454;2022-11-11T10:06:59;4.07;;;3.65;;
40955;SDS011;26687;48.254;11.454;2022-11-11T10:10:05;4.35;;;3.72;;
40955;SDS011;26687;48.254;11.454;2022-11-11T10:13:14;4.53;;;3.83;;
40955;SDS011;26687;48.254;11.454;2022-11-11T10:16:20;3.92;;;3.42;;
40955;SDS011;26687;48.254;11.454;2022-11-11T10:22:29;4.25;;;3.25;;
40955;SDS011;26687;48.254;11.454;2022-11-11T10:25:30;4.95;;;3.53;;
40955;SDS011;26687;48.254;11.454;2022-11-11T10:28:32;5.13;;;3.90;;
40955;SDS011;26687;48.254;11.454;2022-11-11T10:34:34;4.63;;;3.40;;
40955;SDS011;26687;48.254;11.454;2022-11-11T10:37:38;5.13;;;3.80;;
40955;SDS011;26687;48.254;11.454;2022-11-11T10:40:45;5.88;;;3.67;;
40955;SDS011;26687;48.254;11.454;2022-11-11T10:43:47;4.30;;;3.63;;
40955;SDS011;26687;48.254;11.454;2022-11-11T10:46:54;4.37;;;3.57;;
40955;SDS011;26687;48.254;11.454;2022-11-11T10:56:01;4.30;;;3.60;;
40955;SDS011;26687;48.254;11.454;2022-11-11T11:02:05;3.65;;;3.35;;
40955;SDS011;26687;48.254;11.454;2022-11-11T11:05:10;3.45;;;3.22;;
40955;SDS011;26687;48.254;11.454;2022-11-11T11:08:16;3.50;;;3.20;;
40955;SDS011;26687;48.254;11.454;2022-11-11T11:11:23;4.22;;;3.25;;
40955;SDS011;26687;48.254;11.454;2022-11-11T11:14:29;4.65;;;2.85;;
40955;SDS011;26687;48.254;11.454;2022-11-11T11:17:34;3.47;;;3.17;;
40955;SDS011;26687;48.254;11.454;2022-11-11T11:20:35;3.90;;;3.25;;
40955;SDS011;26687;48.254;11.454;2022-11-11T11:23:39;3.70;;;3.40;;
40955;SDS011;26687;48.254;11.454;2022-11-11T11:26:44;7.70;;;3.80;;
40955;SDS011;26687;48.254;11.454;2022-11-11T11:29:45;4.95;;;3.35;;
40955;SDS011;26687;48.254;11.454;2022-11-11T11:32:58;4.05;;;3.67;;
40955;SDS011;26687;48.254;11.454;2022-11-11T11:36:01;3.78;;;3.17;;
40955;SDS011;26687;48.254;11.454;2022-11-11T11:39:12;4.95;;;3.17;;
40955;SDS011;26687;48.254;11.454;2022-11-11T11:42:29;4.30;;;3.00;;
40955;SDS011;26687;48.254;11.454;2022-11-11T11:45:29;4.20;;;3.22;;
40955;SDS011;26687;48.254;11.454;2022-11-11T11:55:15;4.68;;;4.20;;
40955;SDS011;26687;48.254;11.454;2022-11-11T12:10:47;3.92;;;3.53;;
40955;SDS011;26687;48.254;11.454;2022-11-11T12:17:07;3.63;;;3.15;;
40955;SDS011;26687;48.254;11.454;2022-11-11T12:35:42;4.70;;;3.90;;
40955;SDS011;26687;48.254;11.454;2022-11-11T12:51:15;4.47;;;4.05;;
40955;SDS011;26687;48.254;11.454;2022-11-11T12:54:33;4.28;;;3.88;;
40955;SDS011;26687;48.254;11.454;2022-11-11T13:01:10;3.42;;;3.13;;
40955;SDS011;26687;48.254;11.454;2022-11-11T13:16:51;3.47;;;3.17;;
40955;SDS011;26687;48.254;11.454;2022-11-11T13:19:55;3.78;;;3.38;;
40955;SDS011;26687;48.254;11.454;2022-11-11T13:22:55;2.70;;;2.50;;
40955;SDS011;26687;48.254;11.454;2022-11-11T13:25:56;3.13;;;2.83;;
40955;SDS011;26687;48.254;11.454;2022-11-11T13:29:02;3.20;;;3.00;;
40955;SDS011;26687;48.254;11.454;2022-11-11T13:32:04;2.95;;;2.65;;
40955;SDS011;26687;48.254;11.454;2022-11-11T13:35:23;2.80;;;2.60;;
40955;SDS011;26687;48.254;11.454;2022-11-11T13:38:32;3.13;;;2.80;;
40955;SDS011;26687;48.254;11.454;2022-11-11T13:41:35;3.42;;;2.88;;
40955;SDS011;26687;48.254;11.454;2022-11-11T13:44:37;2.60;;;2.40;;
40955;SDS011;26687;48.254;11.454;2022-11-11T13:47:46;2.70;;;2.50;;
40955;SDS011;26687;48.254;11.454;2022-11-11T13:50:46;3.35;;;3.05;;
40955;SDS011;26687;48.254;11.454;2022-11-11T13:53:47;4.10;;;2.72;;
40955;SDS011;26687;48.254;11.454;2022-11-11T13:56:47;2.92;;;2.72;;
40955;SDS011;26687;48.254;11.454;2022-11-11T13:59:54;2.92;;;2.72;;
40955;SDS011;26687;48.254;11.454;2022-11-11T14:12:38;2.78;;;2.58;;
40955;SDS011;26687;48.254;11.454;2022-11-11T14:15:43;2.30;;;2.10;;
40955;SDS011;26687;48.254;11.454;2022-11-11T14:18:44;3.20;;;2.22;;
40955;SDS011;26687;48.254;11.454;2022-11-11T14:21:48;2.40;;;2.15;;
40955;SDS011;26687;48.254;11.454;2022-11-11T14:24:49;2.58;;;2.28;;
40955;SDS011;26687;48.254;11.454;2022-11-11T14:27:49;2.72;;;2.38;;
40955;SDS011;26687;48.254;11.454;2022-11-11T14:30:49;3.00;;;2.35;;
40955;SDS011;26687;48.254;11.454;2022-11-11T14:40:24;2.80;;;2.60;;
40955;SDS011;26687;48.254;11.454;2022-11-11T14:43:32;2.42;;;2.22;;
40955;SDS011;26687;48.254;11.454;2022-11-11T14:46:33;3.50;;;2.50;;
40955;SDS011;26687;48.254;11.454;2022-11-11T14:49:54;3.00;;;2.70;;
40955;SDS011;26687;48.254;11.454;2022-11-11T14:52:54;2.65;;;2.45;;
40955;SDS011;26687;48.254;11.454;2022-11-11T14:55:55;2.80;;;2.60;;
40955;SDS011;26687;48.254;11.454;2022-11-11T14:58:56;3.03;;;2.60;;
40955;SDS011;26687;48.254;11.454;2022-11-11T15:01:58;2.33;;;2.17;;
40955;SDS011;26687;48.254;11.454;2022-11-11T15:04:59;2.65;;;2.45;;
40955;SDS011;26687;48.254;11.454;2022-11-11T15:08:02;2.63;;;2.42;;
40955;SDS011;26687;48.254;11.454;2022-11-11T15:14:14;2.63;;;2.42;;
40955;SDS011;26687;48.254;11.454;2022-11-11T15:20:31;2.40;;;2.20;;
40955;SDS011;26687;48.254;11.454;2022-11-11T15:23:41;2.67;;;2.47;;
40955;SDS011;26687;48.254;11.454;2022-11-11T15:26:53;5.07;;;2.50;;
40955;SDS011;26687;48.254;11.454;2022-11-11T15:29:58;2.65;;;2.45;;
40955;SDS011;26687;48.254;11.454;2022-11-11T15:33:05;3.83;;;2.95;;
40955;SDS011;26687;48.254;11.454;2022-11-11T15:39:26;3.42;;;3.13;;
40955;SDS011;26687;48.254;11.454;2022-11-11T15:42:31;2.90;;;2.67;;
40955;SDS011;26687;48.254;11.454;2022-11-11T15:45:36;3.25;;;2.95;;
40955;SDS011;26687;48.254;11.454;2022-11-11T15:48:43;3.20;;;2.77;;
40955;SDS011;26687;48.254;11.454;2022-11-11T15:51:43;3.58;;;2.75;;
40955;SDS011;26687;48.254;11.454;2022-11-11T15:54:43;3.10;;;2.90;;
40955;SDS011;26687;48.254;11.454;2022-11-11T15:57:44;3.13;;;2.55;;
40955;SDS011;26687;48.254;11.454;2022-11-11T16:00:45;3.35;;;3.08;;
40955;SDS011;26687;48.254;11.454;2022-11-11T16:03:45;3.50;;;2.90;;
40955;SDS011;26687;48.254;11.454;2022-11-11T16:06:46;5.40;;;3.22;;
40955;SDS011;26687;48.254;11.454;2022-11-11T16:09:46;3.35;;;3.05;;
40955;SDS011;26687;48.254;11.454;2022-11-11T16:12:51;3.37;;;3.07;;
40955;SDS011;26687;48.254;11.454;2022-11-11T16:18:57;3.63;;;3.33;;
40955;SDS011;26687;48.254;11.454;2022-11-11T16:22:01;4.32;;;3.55;;
40955;SDS011;26687;48.254;11.454;2022-11-11T16:25:02;3.63;;;3.33;;
40955;SDS011;26687;48.254;11.454;2022-11-11T16:28:04;3.50;;;3.20;;
40955;SDS011;26687;48.254;11.454;2022-11-11T16:37:26;5.88;;;5.28;;
40955;SDS011;26687;48.254;11.454;2022-11-11T16:49:36;5.70;;;5.20;;
40955;SDS011;26687;48.254;11.454;2022-11-11T16:52:43;6.25;;;5.68;;
40955;SDS011;26687;48.254;11.454;2022-11-11T16:55:44;5.93;;;5.40;;
40955;SDS011;26687;48.254;11.454;2022-11-11T16:58:52;5.40;;;4.90;;
40955;SDS011;26687;48.254;11.454;2022-11-11T17:01:52;5.78;;;5.28;;
40955;SDS011;26687;48.254;11.454;2022-11-11T17:04:54;7.17;;;6.30;;
40955;SDS011;26687;48.254;11.454;2022-11-11T17:07:54;7.57;;;6.72;;
40955;SDS011;26687;48.254;11.454;2022-11-11T17:10:54;8.18;;;7.20;;
40955;SDS011;26687;48.254;11.454;2022-11-11T17:13:54;8.45;;;7.65;;
40955;SDS011;26687;48.254;11.454;2022-11-11T17:16:55;8.90;;;8.00;;
40955;SDS011;26687;48.254;11.454;2022-11-11T17:19:56;8.63;;;7.82;;
40955;SDS011;26687;48.254;11.454;2022-11-11T17:22:57;9.95;;;8.10;;
40955;SDS011;26687;48.254;11.454;2022-11-11T17:25:58;9.32;;;8.43;;
40955;SDS011;26687;48.254;11.454;2022-11-11T17:29:01;9.40;;;8.38;;
40955;SDS011;26687;48.254;11.454;2022-11-11T17:32:01;9.35;;;8.18;;
40955;SDS011;26687;48.254;11.454;2022-11-11T17:35:03;11.95;;;10.82;;
40955;SDS011;26687;48.254;11.454;2022-11-11T17:38:03;12.60;;;11.18;;
40955;SDS011;26687;48.254;11.454;2022-11-11T17:41:03;12.32;;;11.23;;
40955;SDS011;26687;48.254;11.454;2022-11-11T17:44:04;11.57;;;10.43;;
40955;SDS011;26687;48.254;11.454;2022-11-11T17:47:04;11.82;;;10.73;;
40955;SDS011;26687;48.254;11.454;2022-11-11T17:50:04;13.90;;;12.60;;
40955;SDS011;26687;48.254;11.454;2022-11-11T17:53:05;14.68;;;13.18;;
40955;SDS011;26687;48.254;11.454;2022-11-11T17:56:05;13.80;;;11.83;;
40955;SDS011;26687;48.254;11.454;2022-11-11T17:59:06;12.35;;;11.13;;
40955;SDS011;26687;48.254;11.454;2022-11-11T18:02:09;11.55;;;10.25;;
40955;SDS011;26687;48.254;11.454;2022-11-11T18:05:09;14.65;;;11.18;;
40955;SDS011;26687;48.254;11.454;2022-11-11T18:08:10;11.13;;;9.90;;
40955;SDS011;26687;48.254;11.454;2022-11-11T18:11:10;12.48;;;9.43;;
40955;SDS011;26687;48.254;11.454;2022-11-11T18:14:10;10.00;;;7.80;;
40955;SDS011;26687;48.254;11.454;2022-11-11T18:17:11;11.32;;;8.90;;
40955;SDS011;26687;48.254;11.454;2022-11-11T18:20:11;10.82;;;9.18;;
40955;SDS011;26687;48.254;11.454;2022-11-11T18:23:11;11.00;;;9.88;;
40955;SDS011;26687;48.254;11.454;2022-11-11T18:26:11;20.42;;;18.30;;
40955;SDS011;26687;48.254;11.454;2022-11-11T18:29:11;19.23;;;16.70;;
40955;SDS011;26687;48.254;11.454;2022-11-11T18:32:12;18.57;;;16.63;;
40955;SDS011;26687;48.254;11.454;2022-11-11T18:35:12;19.25;;;16.83;;
40955;SDS011;26687;48.254;11.454;2022-11-11T18:38:12;18.07;;;16.17;;
40955;SDS011;26687;48.254;11.454;2022-11-11T18:41:14;16.52;;;14.82;;
40955;SDS011;26687;48.254;11.454;2022-11-11T18:44:16;15.88;;;11.80;;
40955;SDS011;26687;48.254;11.454;2022-11-11T18:47:16;9.70;;;8.80;;
40955;SDS011;26687;48.254;11.454;2022-11-11T18:50:16;10.95;;;8.18;;
40955;SDS011;26687;48.254;11.454;2022-11-11T18:53:16;11.63;;;10.30;;
40955;SDS011;26687;48.254;11.454;2022-11-11T18:56:20;9.65;;;8.63;;
40955;SDS011;26687;48.254;11.454;2022-11-11T18:59:21;10.00;;;9.00;;
40955;SDS011;26687;48.254;11.454;2022-11-11T19:02:21;10.73;;;9.63;;
40955;SDS011;26687;48.254;11.454;2022-11-11T19:05:21;11.00;;;9.90;;
40955;SDS011;26687;48.254;11.454;2022-11-11T19:08:21;13.60;;;9.93;;
40955;SDS011;26687;48.254;11.454;2022-11-11T19:11:22;12.17;;;10.97;;
40955;SDS011;26687;48.254;11.454;2022-11-11T19:14:22;12.50;;;11.25;;
40955;SDS011;26687;48.254;11.454;2022-11-11T19:17:22;12.13;;;10.98;;
40955;SDS011;26687;48.254;11.454;2022-11-11T19:20:23;11.02;;;9.98;;
40955;SDS011;26687;48.254;11.454;2022-11-11T19:23:28;13.93;;;10.93;;
40955;SDS011;26687;48.254;11.454;2022-11-11T19:26:29;12.20;;;10.45;;
40955;SDS011;26687;48.254;11.454;2022-11-11T19:29:32;13.38;;;11.43;;
40955;SDS011;26687;48.254;11.454;2022-11-11T19:32:53;14.20;;;12.70;;
40955;SDS011;26687;48.254;11.454;2022-11-11T19:35:54;13.63;;;12.32;;
40955;SDS011;26687;48.254;11.454;2022-11-11T19:38:56;14.75;;;12.45;;
40955;SDS011;26687;48.254;11.454;2022-11-11T19:41:57;13.55;;;12.15;;
40955;SDS011;26687;48.254;11.454;2022-11-11T19:44:57;13.83;;;12.37;;
40955;SDS011;26687;48.254;11.454;2022-11-11T19:47:57;13.95;;;12.57;;
40955;SDS011;26687;48.254;11.454;2022-11-11T19:51:04;16.67;;;12.63;;
40955;SDS011;26687;48.254;11.454;2022-11-11T19:54:05;17.05;;;13.50;;
40955;SDS011;26687;48.254;11.454;2022-11-11T19:57:05;16.23;;;14.50;;
40955;SDS011;26687;48.254;11.454;2022-11-11T20:00:05;17.30;;;15.70;;
40955;SDS011;26687;48.254;11.454;2022-11-11T20:03:07;18.50;;;16.70;;
40955;SDS011;26687;48.254;11.454;2022-11-11T20:09:37;20.25;;;18.25;;
40955;SDS011;26687;48.254;11.454;2022-11-11T20:12:37;21.30;;;19.03;;
40955;SDS011;26687;48.254;11.454;2022-11-11T20:15:37;22.23;;;20.02;;
40955;SDS011;26687;48.254;11.454;2022-11-11T20:18:37;22.75;;;20.35;;
40955;SDS011;26687;48.254;11.454;2022-11-11T20:21:38;24.08;;;19.85;;
40955;SDS011;26687;48.254;11.454;2022-11-11T20:24:38;22.95;;;20.58;;
40955;SDS011;26687;48.254;11.454;2022-11-11T20:27:39;22.75;;;20.42;;